Time;durP1;ratioP1;P1;durP2;ratioP2;P2;SDS_P1;SDS_P2;PMS_P1;PMS_P2;Temp;Humidity;BMP_temperature;BMP_pressure;BME280_temperature;BME280_humidity;BME280_pressure;Samples;Min_cycle;Max_cycle;Signal;HPM_P1;HPM_P2
2023/04/17 00:01:43;;;;;;;42.30;23.53;;;;;;;8.15;100.00;99133.00;5019170;28;20244;-60
2023/04/17 00:04:11;;;;;;;40.27;23.20;;;;;;;8.16;100.00;99135.47;5015251;28;20297;-60
2023/04/17 00:06:42;;;;;;;41.40;23.37;;;;;;;8.16;100.00;99129.44;5016909;28;20283;-60
2023/04/17 00:09:08;;;;;;;45.33;24.10;;;;;;;8.16;100.00;99125.06;5015603;28;20235;-61
2023/04/17 00:11:35;;;;;;;45.20;24.13;;;;;;;8.15;100.00;99128.59;5018515;28;20719;-61
2023/04/17 00:14:01;;;;;;;44.37;24.47;;;;;;;8.15;100.00;99125.19;5019383;28;20237;-61
2023/04/17 00:16:28;;;;;;;49.30;26.03;;;;;;;8.16;100.00;99129.44;5015856;28;20233;-61
2023/04/17 00:18:55;;;;;;;64.33;34.40;;;;;;;8.17;100.00;99131.91;5018497;28;20241;-61
2023/04/17 00:21:21;;;;;;;52.13;27.83;;;;;;;8.23;100.00;99123.63;5016050;28;20237;-61
2023/04/17 00:23:49;;;;;;;44.07;26.23;;;;;;;8.27;100.00;99122.44;5017628;28;20236;-61
2023/04/17 00:26:16;;;;;;;46.07;25.57;;;;;;;8.24;100.00;99122.69;5015687;28;20279;-61
2023/04/17 00:28:43;;;;;;;47.27;25.07;;;;;;;8.21;100.00;99119.50;5005229;28;20321;-61
2023/04/17 00:31:09;;;;;;;44.30;25.13;;;;;;;8.19;100.00;99119.63;4985994;28;20292;-61
2023/04/17 00:33:36;;;;;;;43.43;26.37;;;;;;;8.26;100.00;99118.19;4997160;28;21544;-61
2023/04/17 00:36:03;;;;;;;42.47;25.47;;;;;;;8.23;100.00;99109.81;4997882;28;20218;-61
2023/04/17 00:38:30;;;;;;;45.13;27.63;;;;;;;8.26;100.00;99117.38;4995539;28;20241;-61
2023/04/17 00:40:58;;;;;;;46.17;25.73;;;;;;;8.28;100.00;99115.47;4978991;28;20230;-60
2023/04/17 00:43:24;;;;;;;45.27;25.87;;;;;;;8.23;100.00;99110.63;4995892;28;20236;-60
2023/04/17 00:45:53;;;;;;;45.93;25.53;;;;;;;8.26;100.00;99110.38;4987384;28;20240;-60
2023/04/17 00:48:22;;;;;;;46.23;24.93;;;;;;;8.21;100.00;99103.91;4995557;28;20241;-61
2023/04/17 00:50:50;;;;;;;48.40;28.03;;;;;;;8.20;100.00;99104.84;5012549;28;20231;-60
2023/04/17 00:53:17;;;;;;;50.20;27.87;;;;;;;8.20;100.00;99105.66;5002978;28;20241;-60
2023/04/17 00:55:46;;;;;;;42.53;25.30;;;;;;;8.26;100.00;99096.56;4983745;28;20231;-60
2023/04/17 00:58:15;;;;;;;48.90;28.00;;;;;;;8.20;100.00;99097.06;4980764;28;20223;-61
2023/04/17 01:00:42;;;;;;;45.03;26.30;;;;;;;8.19;100.00;99101.41;4998991;28;20235;-60
2023/04/17 01:03:08;;;;;;;46.63;27.13;;;;;;;8.20;100.00;99089.25;5007974;28;20232;-60
2023/04/17 01:05:37;;;;;;;43.57;24.73;;;;;;;8.25;100.00;99092.31;4997460;28;20346;-61
2023/04/17 01:08:04;;;;;;;44.40;26.47;;;;;;;8.20;100.00;99091.84;4987872;28;20858;-61
2023/04/17 01:10:31;;;;;;;45.83;26.83;;;;;;;8.20;100.00;99094.44;4996789;28;20237;-60
2023/04/17 01:13:02;;;;;;;45.53;26.20;;;;;;;8.20;100.00;99090.06;5002485;28;20742;-61
2023/04/17 01:15:30;;;;;;;42.37;25.70;;;;;;;8.20;100.00;99086.66;4952355;28;20235;-61
2023/04/17 01:17:57;;;;;;;42.93;26.37;;;;;;;8.21;100.00;99083.91;5006420;28;20241;-61
2023/04/17 01:20:29;;;;;;;39.93;24.90;;;;;;;8.22;100.00;99090.75;5008983;28;20582;-61
2023/04/17 01:22:59;;;;;;;41.93;24.87;;;;;;;8.21;100.00;99091.72;5006620;28;20238;-61
2023/04/17 01:25:28;;;;;;;42.27;25.10;;;;;;;8.21;100.00;99085.69;5020570;28;20234;-60
2023/04/17 01:28:20;;;;;;;44.40;25.07;;;;;;;8.20;100.00;99087.47;4976591;28;20599;-60
2023/04/17 01:30:46;;;;;;;40.27;25.10;;;;;;;8.22;100.00;99093.38;4996897;28;20830;-60
2023/04/17 01:33:13;;;;;;;39.40;23.20;;;;;;;8.19;100.00;99090.19;4984245;28;20232;-60
2023/04/17 01:35:40;;;;;;;40.87;23.60;;;;;;;8.20;100.00;99095.25;5022380;28;21733;-60
2023/04/17 01:38:06;;;;;;;40.37;24.80;;;;;;;8.21;100.00;99094.31;5012674;28;20237;-61
2023/04/17 01:40:34;;;;;;;41.00;24.80;;;;;;;8.23;100.00;99089.81;4999613;28;20608;-61
2023/04/17 01:43:01;;;;;;;37.57;22.23;;;;;;;8.21;100.00;99090.91;5000540;28;20630;-61
2023/04/17 01:45:28;;;;;;;38.83;23.83;;;;;;;8.23;100.00;99094.19;4997502;28;20707;-61
2023/04/17 01:47:54;;;;;;;35.17;22.63;;;;;;;8.24;100.00;99098.47;4975674;28;20642;-61
2023/04/17 01:50:21;;;;;;;39.47;23.23;;;;;;;8.25;100.00;99089.69;4983248;28;20240;-61
2023/04/17 01:52:49;;;;;;;36.30;22.53;;;;;;;8.26;100.00;99089.56;5001144;28;20279;-61
2023/04/17 01:55:16;;;;;;;35.13;21.10;;;;;;;8.25;100.00;99090.50;4981637;28;20237;-61
2023/04/17 01:57:44;;;;;;;38.00;21.67;;;;;;;8.30;100.00;99102.31;4962289;28;20238;-61
2023/04/17 02:00:12;;;;;;;36.33;22.03;;;;;;;8.28;100.00;99092.06;4977300;28;20225;-61
2023/04/17 02:02:42;;;;;;;38.97;22.57;;;;;;;8.28;100.00;99099.84;5000454;28;20320;-60
2023/04/17 02:05:10;;;;;;;37.23;21.70;;;;;;;8.25;100.00;99090.50;4998653;28;20267;-60
2023/04/17 02:07:37;;;;;;;37.93;22.97;;;;;;;8.25;100.00;99097.50;4989632;28;20232;-60
2023/04/17 02:10:04;;;;;;;33.60;20.83;;;;;;;8.24;100.00;99091.47;4989654;28;20229;-60
2023/04/17 02:12:30;;;;;;;37.77;22.40;;;;;;;8.21;100.00;99085.69;4966651;28;20256;-61
2023/04/17 02:14:59;;;;;;;35.67;21.93;;;;;;;8.26;100.00;99086.97;4993171;28;21001;-61
2023/04/17 02:17:27;;;;;;;35.97;22.37;;;;;;;8.24;100.00;99086.25;4994936;28;20237;-61
2023/04/17 02:19:53;;;;;;;36.00;21.50;;;;;;;8.24;100.00;99088.88;5009770;28;20775;-61
2023/04/17 02:22:20;;;;;;;35.33;21.50;;;;;;;8.25;100.00;99089.69;4985609;28;20265;-60
2023/04/17 02:24:46;;;;;;;32.93;20.90;;;;;;;8.26;100.00;99086.16;5004632;28;20237;-60
2023/04/17 02:27:13;;;;;;;34.83;20.87;;;;;;;8.25;100.00;99085.31;4997162;28;20243;-60
2023/04/17 02:29:43;;;;;;;33.73;21.23;;;;;;;8.24;100.00;99083.66;4990454;28;20230;-61
2023/04/17 02:32:16;;;;;;;34.03;20.23;;;;;;;8.24;100.00;99086.25;5004490;28;20244;-61
2023/04/17 02:34:43;;;;;;;38.63;22.17;;;;;;;8.21;100.00;99088.31;5004260;28;20588;-60
2023/04/17 02:37:10;;;;;;;37.07;21.27;;;;;;;8.20;100.00;99082.25;4992090;28;20232;-61
2023/04/17 02:39:41;;;;;;;35.10;21.70;;;;;;;8.18;100.00;99083.34;5000601;28;20931;-61
2023/04/17 02:42:09;;;;;;;32.17;19.83;;;;;;;8.17;100.00;99086.91;4996100;28;20222;-60
2023/04/17 02:44:35;;;;;;;34.10;21.00;;;;;;;8.15;100.00;99084.41;4990180;28;20238;-61
2023/04/17 02:47:02;;;;;;;34.87;21.10;;;;;;;8.13;100.00;99078.50;4987643;28;20750;-61
2023/04/17 02:49:33;;;;;;;32.13;20.43;;;;;;;8.09;100.00;99082.28;4991224;28;20233;-61
2023/04/17 02:52:00;;;;;;;32.27;19.43;;;;;;;8.13;100.00;99070.69;4987017;28;20218;-61
2023/04/17 02:54:27;;;;;;;33.17;19.43;;;;;;;8.08;100.00;99083.25;4982224;28;20225;-61
2023/04/17 02:56:57;;;;;;;32.03;19.17;;;;;;;8.09;100.00;99082.28;5005029;28;20231;-61
2023/04/17 02:59:24;;;;;;;33.80;19.73;;;;;;;8.05;100.00;99083.50;5021356;28;20232;-62
2023/04/17 03:04:53;;;;;;;36.40;19.93;;;;;;;7.99;100.00;99082.22;5780665;22;20246;-55
2023/04/17 03:07:22;;;;;;;31.07;19.97;;;;;;;7.98;100.00;99083.16;4969157;28;20221;-57
2023/04/17 03:09:52;;;;;;;35.33;21.57;;;;;;;7.97;100.00;99077.13;4977976;28;20333;-55
2023/04/17 03:12:19;;;;;;;39.10;22.10;;;;;;;7.96;100.00;99082.47;4976073;28;20255;-57
2023/04/17 03:14:46;;;;;;;41.20;22.33;;;;;;;7.95;100.00;99071.22;4973165;28;20727;-56
2023/04/17 03:17:14;;;;;;;44.97;23.50;;;;;;;7.94;100.00;99077.41;5001575;23;20209;-56
2023/04/17 03:19:41;;;;;;;36.63;22.83;;;;;;;7.95;100.00;99076.44;5039625;28;20706;-56
2023/04/17 03:22:09;;;;;;;37.30;22.33;;;;;;;8.00;100.00;99072.63;5039929;28;21157;-57
2023/04/17 03:24:36;;;;;;;37.40;22.40;;;;;;;8.02;100.00;99079.38;5026103;28;20247;-56
2023/04/17 03:27:03;;;;;;;34.23;20.50;;;;;;;7.95;100.00;99080.81;5011065;28;20328;-56
2023/04/17 03:29:37;;;;;;;39.03;21.67;;;;;;;7.95;100.00;99081.63;5013198;28;20234;-56
2023/04/17 03:32:04;;;;;;;37.17;21.93;;;;;;;7.97;100.00;99082.31;5233384;23;20228;-56
2023/04/17 03:34:32;;;;;;;36.47;21.20;;;;;;;8.03;100.00;99085.38;5007294;28;20260;-53
2023/04/17 03:36:59;;;;;;;34.57;21.07;;;;;;;7.98;100.00;99083.97;5012972;28;20236;-56
2023/04/17 03:39:27;;;;;;;36.17;21.73;;;;;;;7.96;100.00;99085.06;5017884;28;20248;-54
2023/04/17 03:41:53;;;;;;;37.60;23.27;;;;;;;7.99;100.00;99084.81;5005595;28;20458;-56
2023/04/17 03:44:20;;;;;;;35.10;20.80;;;;;;;7.97;100.00;99086.72;4988022;28;20264;-57
2023/04/17 03:46:46;;;;;;;36.83;22.10;;;;;;;8.00;100.00;99083.03;5006761;28;20300;-55
2023/04/17 03:49:17;;;;;;;35.63;21.57;;;;;;;7.97;100.00;99092.72;4987426;28;20245;-53
2023/04/17 03:51:43;;;;;;;35.03;21.67;;;;;;;7.95;100.00;99088.63;4993650;28;20272;-55
2023/04/17 03:54:16;;;;;;;37.97;22.00;;;;;;;8.02;100.00;99099.34;4989692;28;20326;-56
2023/04/17 03:56:46;;;;;;;34.90;20.67;;;;;;;7.94;100.00;99098.19;5010136;28;20230;-57
2023/04/17 03:59:17;;;;;;;35.73;21.10;;;;;;;7.95;100.00;99096.41;5003992;28;20243;-53
2023/04/17 04:01:45;;;;;;;34.70;20.63;;;;;;;7.97;100.00;99097.13;5006304;28;20249;-54
2023/04/17 04:04:21;;;;;;;34.87;20.67;;;;;;;7.99;100.00;99100.41;5005307;28;20588;-55
2023/04/17 04:06:53;;;;;;;39.53;20.83;;;;;;;7.96;100.00;99100.66;4998736;28;20242;-56
2023/04/17 04:09:21;;;;;;;32.57;20.47;;;;;;;7.96;100.00;99098.06;4985772;28;20225;-54
2023/04/17 04:11:49;;;;;;;34.73;20.97;;;;;;;7.97;100.00;99102.31;4992001;28;20805;-53
2023/04/17 04:14:17;;;;;;;33.77;18.87;;;;;;;7.96;100.00;99098.06;4988821;28;20226;-53
2023/04/17 04:16:47;;;;;;;32.73;20.07;;;;;;;7.97;100.00;99103.13;5008461;28;20257;-54
2023/04/17 04:19:15;;;;;;;36.57;20.63;;;;;;;8.00;100.00;99109.88;5005350;28;20220;-53
2023/04/17 04:21:43;;;;;;;32.40;20.63;;;;;;;8.03;100.00;99106.19;5007742;28;20234;-56
2023/04/17 04:24:13;;;;;;;35.20;21.27;;;;;;;8.01;100.00;99111.53;4991890;28;20289;-53
2023/04/17 04:26:42;;;;;;;34.60;19.93;;;;;;;8.00;100.00;99106.44;5010713;28;20300;-55
2023/04/17 04:29:10;;;;;;;35.40;19.87;;;;;;;8.01;100.00;99115.88;4994749;28;20233;-55
2023/04/17 04:31:49;;;;;;;31.13;19.10;;;;;;;8.07;100.00;99112.78;5011228;28;20245;-56
2023/04/17 04:34:20;;;;;;;31.77;18.43;;;;;;;8.02;100.00;99107.97;4993888;28;20315;-53
2023/04/17 04:36:49;;;;;;;31.27;18.23;;;;;;;8.02;100.00;99109.72;4999784;28;20234;-56
2023/04/17 04:39:29;;;;;;;30.10;19.13;;;;;;;7.96;100.00;99106.69;5009355;28;20229;-55
2023/04/17 04:41:55;;;;;;;40.00;21.03;;;;;;;7.94;100.00;99102.56;4998630;28;20671;-56
2023/04/17 04:44:29;;;;;;;35.50;18.83;;;;;;;7.95;100.00;99106.81;5011891;28;20237;-55
2023/04/17 04:46:57;;;;;;;30.80;18.17;;;;;;;7.95;100.00;99118.03;5006376;28;20302;-55
2023/04/17 04:49:25;;;;;;;32.43;17.40;;;;;;;7.96;100.00;99117.06;5002022;28;20397;-55
2023/04/17 04:51:51;;;;;;;31.07;18.43;;;;;;;7.95;100.00;99127.59;5010363;28;20240;-55
2023/04/17 04:54:19;;;;;;;28.13;18.30;;;;;;;7.98;100.00;99120.38;4989423;28;20225;-55
2023/04/17 04:56:51;;;;;;;33.37;18.67;;;;;;;8.01;100.00;99119.31;4999734;28;20676;-53
2023/04/17 04:59:18;;;;;;;28.03;17.87;;;;;;;8.00;100.00;99115.06;4991123;28;20221;-55
2023/04/17 05:01:53;;;;;;;30.03;17.77;;;;;;;7.96;100.00;99114.47;4998115;28;21099;-54
2023/04/17 05:04:22;;;;;;;28.13;16.63;;;;;;;7.94;100.00;99112.97;5008504;28;20310;-55
2023/04/17 05:06:55;;;;;;;30.00;16.70;;;;;;;7.91;100.00;99115.81;4996229;28;20249;-56
2023/04/17 05:09:22;;;;;;;29.07;17.20;;;;;;;7.90;100.00;99121.94;5008968;28;20599;-54
2023/04/17 05:11:53;;;;;;;28.50;17.03;;;;;;;7.94;100.00;99121.59;4996639;28;20328;-55
2023/04/17 05:14:21;;;;;;;28.93;17.23;;;;;;;7.96;100.00;99121.47;4990364;28;20305;-56
2023/04/17 05:16:48;;;;;;;30.73;18.07;;;;;;;7.97;100.00;99125.72;5012570;28;20235;-54
2023/04/17 05:19:18;;;;;;;30.63;18.00;;;;;;;8.01;100.00;99126.28;4992368;28;20225;-53
2023/04/17 05:21:54;;;;;;;30.93;18.17;;;;;;;8.01;100.00;99127.13;5014187;28;20234;-57
2023/04/17 05:24:22;;;;;;;34.60;17.97;;;;;;;8.01;100.00;99132.31;5007277;28;20613;-55
2023/04/17 05:26:49;;;;;;;28.80;17.47;;;;;;;8.02;100.00;99128.78;5011097;28;20237;-56
2023/04/17 05:29:16;;;;;;;28.73;18.13;;;;;;;8.05;100.00;99125.94;4994428;28;20689;-56
2023/04/17 05:31:43;;;;;;;29.47;17.40;;;;;;;8.09;100.00;99129.94;5008618;28;20229;-56
2023/04/17 05:34:24;;;;;;;31.47;18.83;;;;;;;8.10;100.00;99134.19;5000670;28;20589;-55
2023/04/17 05:36:50;;;;;;;31.13;19.30;;;;;;;8.20;100.00;99133.47;4993669;28;20229;-56
2023/04/17 05:39:17;;;;;;;29.43;17.20;;;;;;;8.15;100.00;99131.22;5009884;28;20220;-56
2023/04/17 05:41:44;;;;;;;28.67;16.57;;;;;;;8.23;100.00;99133.22;4996654;28;20237;-55
2023/04/17 05:44:11;;;;;;;28.40;17.10;;;;;;;8.18;100.00;99130.16;4994406;28;20229;-56
2023/04/17 05:46:37;;;;;;;28.07;16.07;;;;;;;8.11;100.00;99135.00;4994551;28;20242;-55
2023/04/17 05:49:05;;;;;;;24.90;15.93;;;;;;;8.28;100.00;99133.66;5003138;28;20749;-56
2023/04/17 05:51:33;;;;;;;23.37;15.20;;;;;;;8.33;100.00;99131.53;4987838;28;20730;-57
2023/04/17 05:54:01;;;;;;;26.10;16.57;;;;;;;8.34;100.00;99133.19;4994043;28;20221;-53
2023/04/17 05:56:28;;;;;;;25.83;15.83;;;;;;;8.36;100.00;99135.63;4983172;28;20237;-57
2023/04/17 05:58:55;;;;;;;25.87;16.37;;;;;;;8.42;100.00;99135.16;4976916;28;20218;-53
2023/04/17 06:01:24;;;;;;;28.25;17.17;;;;;;;8.50;100.00;99145.78;4975415;28;20446;-53
2023/04/17 06:03:56;;;;;;;23.10;14.50;;;;;;;8.52;100.00;99145.66;4980989;28;20319;-56
2023/04/17 06:06:27;;;;;;;26.13;16.00;;;;;;;8.48;100.00;99144.25;4989301;28;20667;-53
2023/04/17 06:08:55;;;;;;;22.70;15.13;;;;;;;8.51;100.00;99144.00;4993817;28;20233;-54
2023/04/17 06:11:23;;;;;;;23.57;15.00;;;;;;;8.52;100.00;99149.09;4973817;28;20347;-56
2023/04/17 06:13:50;;;;;;;22.43;14.60;;;;;;;8.40;100.00;99144.84;4993162;28;20716;-57
2023/04/17 06:16:18;;;;;;;24.70;13.87;;;;;;;8.50;100.00;99150.16;4978150;28;20314;-57
2023/04/17 06:18:47;;;;;;;23.17;14.73;;;;;;;8.53;100.00;99149.91;4985183;28;20687;-55
2023/04/17 06:21:13;;;;;;;22.87;14.57;;;;;;;8.68;100.00;99147.84;4976370;28;20238;-56
2023/04/17 06:23:40;;;;;;;20.50;13.83;;;;;;;8.61;100.00;99155.31;4976200;28;20728;-56
2023/04/17 06:26:09;;;;;;;22.40;14.20;;;;;;;8.73;100.00;99163.06;4990951;28;20225;-54
2023/04/17 06:28:36;;;;;;;21.53;14.27;;;;;;;8.82;100.00;99157.13;4992597;28;20596;-56
2023/04/17 06:31:04;;;;;;;19.73;13.07;;;;;;;8.90;100.00;99154.69;4987756;28;20254;-55
2023/04/17 06:33:31;;;;;;;22.00;13.93;;;;;;;8.95;100.00;99155.16;4985271;28;20237;-56
2023/04/17 06:35:58;;;;;;;19.43;12.43;;;;;;;9.00;100.00;99162.59;4980908;28;20220;-56
2023/04/17 06:38:32;;;;;;;19.40;12.83;;;;;;;9.07;100.00;99168.09;4993195;28;20243;-57
2023/04/17 06:40:59;;;;;;;22.10;14.33;;;;;;;9.04;100.00;99163.16;4995160;28;20230;-57
2023/04/17 06:43:29;;;;;;;21.27;16.20;;;;;;;9.14;100.00;99162.25;4982246;28;20432;-57
2023/04/17 06:46:00;;;;;;;19.67;13.63;;;;;;;9.16;100.00;99165.53;4972654;28;20226;-56
2023/04/17 06:48:29;;;;;;;18.30;12.33;;;;;;;9.26;100.00;99167.38;4955054;28;20236;-56
2023/04/17 06:50:55;;;;;;;18.37;12.83;;;;;;;9.24;100.00;99169.28;4970310;28;20260;-58
2023/04/17 06:53:22;;;;;;;20.27;12.93;;;;;;;9.19;100.00;99166.25;4987298;28;20239;-56
2023/04/17 06:55:49;;;;;;;19.23;12.83;;;;;;;9.15;100.00;99163.91;4973306;28;20291;-57
2023/04/17 06:58:18;;;;;;;17.70;11.77;;;;;;;9.21;100.00;99172.16;4968438;28;20297;-56
2023/04/17 07:00:46;;;;;;;18.77;12.30;;;;;;;9.24;100.00;99172.72;4976619;28;20781;-56
2023/04/17 07:03:13;;;;;;;19.60;12.30;;;;;;;8.88;100.00;99171.41;4970294;28;20233;-56
2023/04/17 07:05:40;;;;;;;21.23;15.60;;;;;;;8.95;100.00;99169.97;4971312;28;20236;-57
2023/04/17 07:08:07;;;;;;;18.27;12.13;;;;;;;9.30;100.00;99174.81;4973158;28;20237;-53
2023/04/17 07:10:35;;;;;;;17.30;11.00;;;;;;;9.44;100.00;99178.88;4975700;28;20284;-56
2023/04/17 07:13:02;;;;;;;18.57;12.27;;;;;;;9.37;100.00;99175.13;4976228;28;20615;-57
2023/04/17 07:15:30;;;;;;;18.53;12.63;;;;;;;9.33;100.00;99181.53;4967046;28;20242;-55
2023/04/17 07:17:58;;;;;;;16.90;11.07;;;;;;;9.37;100.00;99189.94;4972168;28;20278;-56
2023/04/17 07:20:24;;;;;;;17.00;11.80;;;;;;;9.34;100.00;99182.38;4969850;28;20284;-57
2023/04/17 07:22:51;;;;;;;18.00;11.97;;;;;;;9.38;100.00;99186.38;4975063;28;20232;-57
2023/04/17 07:25:18;;;;;;;15.83;10.57;;;;;;;9.43;100.00;99185.03;4972032;28;20297;-55
2023/04/17 07:27:45;;;;;;;15.87;10.73;;;;;;;9.36;100.00;99185.69;4974414;28;20234;-54
2023/04/17 07:30:12;;;;;;;17.03;11.33;;;;;;;9.26;100.00;99186.47;4969381;28;20225;-56
2023/04/17 07:32:38;;;;;;;17.47;10.10;;;;;;;9.18;100.00;99178.47;4972904;28;20230;-54
2023/04/17 07:35:07;;;;;;;15.57;11.23;;;;;;;9.34;100.00;99185.00;4969292;28;20226;-53
2023/04/17 07:37:35;;;;;;;17.40;11.63;;;;;;;9.28;100.00;99189.75;4989262;28;20758;-55
2023/04/17 07:40:07;;;;;;;15.83;11.13;;;;;;;9.34;100.00;99192.81;4993183;28;20226;-55
2023/04/17 07:42:34;;;;;;;15.57;11.00;;;;;;;9.45;100.00;99195.34;4989802;28;20225;-54
2023/04/17 07:45:00;;;;;;;16.43;10.53;;;;;;;9.41;100.00;99188.72;4994422;28;20682;-56
2023/04/17 07:47:27;;;;;;;15.43;10.33;;;;;;;9.27;100.00;99187.28;4989725;28;20231;-56
2023/04/17 07:49:54;;;;;;;14.43;9.90;;;;;;;9.59;100.00;99197.56;4963399;28;20233;-54
2023/04/17 07:52:22;;;;;;;16.13;10.80;;;;;;;9.57;100.00;99204.69;4973626;28;20231;-54
2023/04/17 07:54:48;;;;;;;15.77;10.13;;;;;;;9.67;100.00;99196.94;4992243;28;20221;-56
2023/04/17 07:57:16;;;;;;;19.10;10.77;;;;;;;9.41;100.00;99204.38;4978480;28;20222;-56
2023/04/17 07:59:43;;;;;;;16.60;10.47;;;;;;;9.36;100.00;99201.31;4975722;28;20225;-55
2023/04/17 08:02:10;;;;;;;15.60;10.63;;;;;;;9.48;100.00;99202.91;4992429;28;20241;-56
2023/04/17 08:04:38;;;;;;;18.93;11.30;;;;;;;9.51;100.00;99199.19;4997568;28;20274;-57
2023/04/17 08:07:05;;;;;;;17.03;11.33;;;;;;;9.42;100.00;99200.81;4998374;28;20236;-54
2023/04/17 08:09:33;;;;;;;16.90;10.90;;;;;;;9.53;100.00;99211.16;4995426;28;20231;-56
2023/04/17 08:12:00;;;;;;;18.77;11.57;;;;;;;9.54;100.00;99206.75;4997222;28;20244;-57
2023/04/17 08:14:27;;;;;;;18.33;10.53;;;;;;;9.62;100.00;99203.47;4996908;28;20292;-54
2023/04/17 08:16:54;;;;;;;15.67;11.00;;;;;;;9.57;100.00;99214.31;4997216;28;20244;-57
2023/04/17 08:19:21;;;;;;;18.07;11.27;;;;;;;9.30;100.00;99197.44;4994659;28;20238;-56
2023/04/17 08:21:47;;;;;;;17.20;11.23;;;;;;;9.50;100.00;99211.41;4992299;28;20291;-57
2023/04/17 08:24:16;;;;;;;17.17;11.63;;;;;;;9.40;100.00;99206.13;4994018;28;20232;-57
2023/04/17 08:26:45;;;;;;;16.33;11.00;;;;;;;9.62;100.00;99212.16;4997052;28;20237;-57
2023/04/17 08:29:11;;;;;;;15.50;10.43;;;;;;;9.98;100.00;99204.75;4995465;28;20229;-56
2023/04/17 08:31:39;;;;;;;16.87;10.27;;;;;;;10.22;100.00;99210.56;4997106;28;20241;-56
2023/04/17 08:34:06;;;;;;;15.00;9.97;;;;;;;10.87;100.00;99217.91;4991354;28;20240;-56
2023/04/17 08:36:32;;;;;;;13.87;9.23;;;;;;;11.40;97.42;99206.16;4992878;28;20246;-56
2023/04/17 08:38:59;;;;;;;15.93;9.47;;;;;;;12.01;94.62;99209.25;4995708;28;20717;-57
2023/04/17 08:41:33;;;;;;;15.07;9.50;;;;;;;11.35;91.55;99206.59;4995107;28;21300;-57
2023/04/17 08:44:02;;;;;;;13.00;8.57;;;;;;;11.83;89.53;99219.63;4996122;28;20263;-55
2023/04/17 08:46:30;;;;;;;15.67;9.20;;;;;;;11.35;93.35;99214.44;4992793;28;20239;-56
2023/04/17 08:49:01;;;;;;;13.63;8.70;;;;;;;11.84;90.18;99223.88;4997922;28;20239;-57
2023/04/17 08:51:28;;;;;;;14.57;9.20;;;;;;;12.06;91.19;99219.28;4994796;28;20240;-54
2023/04/17 08:53:55;;;;;;;10.63;8.00;;;;;;;11.60;87.98;99217.38;4997471;28;20250;-53
2023/04/17 08:56:21;;;;;;;10.60;7.97;;;;;;;12.47;88.70;99219.72;4995342;28;20234;-53
2023/04/17 08:58:48;;;;;;;11.67;8.57;;;;;;;12.21;89.46;99222.22;4999284;28;20246;-55
2023/04/17 09:01:16;;;;;;;10.43;7.70;;;;;;;12.20;88.05;99224.03;4994052;28;20875;-56
2023/04/17 09:03:44;;;;;;;12.00;8.13;;;;;;;12.77;83.68;99222.13;4992829;28;20220;-56
2023/04/17 09:06:12;;;;;;;11.47;7.37;;;;;;;12.31;85.69;99222.16;4992911;28;20268;-56
2023/04/17 09:08:39;;;;;;;9.60;7.33;;;;;;;12.56;83.46;99225.84;4998290;28;20739;-54
2023/04/17 09:11:16;;;;;;;11.07;7.53;;;;;;;12.24;84.96;99221.91;4992835;28;20231;-57
2023/04/17 09:13:43;;;;;;;9.53;7.60;;;;;;;12.00;87.89;99220.69;4993930;28;20236;-56
2023/04/17 09:16:11;;;;;;;10.77;6.83;;;;;;;11.99;86.62;99220.78;4994631;28;20305;-54
2023/04/17 09:18:41;;;;;;;10.13;7.27;;;;;;;11.45;87.99;99213.56;4996734;28;20234;-56
2023/04/17 09:21:09;;;;;;;11.20;7.27;;;;;;;10.99;93.47;99211.59;5000812;28;20240;-57
2023/04/17 09:23:47;;;;;;;11.63;7.17;;;;;;;10.54;96.00;99220.00;4994922;28;20235;-56
2023/04/17 09:26:15;;;;;;;9.97;7.37;;;;;;;10.30;98.13;99210.72;4987945;28;20232;-55
2023/04/17 09:29:00;;;;;;;12.60;6.97;;;;;;;10.44;97.75;99217.34;4994940;28;20234;-55
2023/04/17 09:31:29;;;;;;;10.13;7.33;;;;;;;10.23;99.31;99217.44;4994055;28;20236;-56
2023/04/17 09:33:59;;;;;;;11.53;6.63;;;;;;;10.56;99.67;99224.09;4995825;28;20364;-55
2023/04/17 09:36:27;;;;;;;10.33;6.97;;;;;;;10.43;100.00;99226.97;4992344;28;23187;-57
2023/04/17 09:38:54;;;;;;;9.27;6.77;;;;;;;10.56;99.93;99225.91;4996503;28;20265;-55
2023/04/17 09:41:25;;;;;;;12.23;6.77;;;;;;;10.59;99.42;99228.25;4992425;28;20333;-56
2023/04/17 09:43:53;;;;;;;8.80;6.77;;;;;;;10.61;97.85;99236.72;4996568;28;20222;-55
2023/04/17 09:46:40;;;;;;;10.97;6.37;;;;;;;10.42;96.64;99222.72;4993896;28;20242;-56
2023/04/17 09:49:19;;;;;;;60.87;29.63;;;;;;;10.28;99.01;99223.06;4993086;28;20240;-57
2023/04/17 09:51:48;;;;;;;9.67;7.23;;;;;;;10.41;97.39;99228.06;4993308;28;20234;-56
2023/04/17 09:54:19;;;;;;;13.63;11.40;;;;;;;10.21;99.10;99224.56;4991127;28;20242;-56
2023/04/17 09:56:48;;;;;;;11.93;8.13;;;;;;;9.98;98.47;99225.59;4993583;28;20850;-54
2023/04/17 09:59:16;;;;;;;9.97;7.43;;;;;;;10.31;99.60;99226.22;4986722;28;20308;-54
2023/04/17 10:01:43;;;;;;;10.87;6.80;;;;;;;10.41;98.45;99228.91;4993943;28;20301;-53
2023/04/17 10:04:12;;;;;;;11.33;7.50;;;;;;;10.50;97.36;99226.44;4990011;28;20272;-55
2023/04/17 10:06:38;;;;;;;9.60;7.30;;;;;;;10.39;98.08;99225.59;4996342;28;20241;-56
2023/04/17 10:09:05;;;;;;;9.73;6.53;;;;;;;10.76;96.50;99222.31;4990417;28;20221;-54
2023/04/17 10:11:45;;;;;;;9.57;7.13;;;;;;;10.95;99.96;99225.88;4992050;28;20660;-55
2023/04/17 10:14:19;;;;;;;15.77;14.20;;;;;;;10.90;94.33;99215.88;4993673;28;20229;-56
2023/04/17 10:16:46;;;;;;;13.10;9.20;;;;;;;11.22;94.94;99224.34;4996084;28;20260;-58
2023/04/17 10:19:31;;;;;;;8.37;6.37;;;;;;;11.28;91.64;99228.19;5006472;28;20223;-55
2023/04/17 10:22:30;;;;;;;10.33;7.83;;;;;;;11.10;92.00;99220.25;5010005;28;20579;-55
2023/04/17 10:25:22;;;;;;;10.87;7.90;;;;;;;10.91;95.42;99221.91;4992621;28;20240;-55
2023/04/17 10:27:54;;;;;;;10.70;7.80;;;;;;;10.85;94.08;99218.06;4992356;28;20796;-56
2023/04/17 10:30:21;;;;;;;10.70;7.80;;;;;;;10.82;93.75;99218.34;4989352;28;20836;-57
2023/04/17 10:33:21;;;;;;;10.87;7.93;;;;;;;10.63;96.19;99219.16;4993258;28;20226;-56
2023/04/17 10:35:49;;;;;;;10.33;7.77;;;;;;;11.04;98.98;99214.59;4990841;28;20266;-56
2023/04/17 10:38:17;;;;;;;17.10;7.57;;;;;;;11.23;96.01;99213.75;4992310;28;20241;-57
2023/04/17 10:40:44;;;;;;;11.87;8.20;;;;;;;11.32;90.24;99214.72;4996316;28;20573;-56
2023/04/17 10:43:13;;;;;;;12.73;8.13;;;;;;;11.22;91.56;99208.69;4986324;28;20325;-56
2023/04/17 10:45:57;;;;;;;11.47;7.60;;;;;;;11.31;92.04;99207.84;4995534;28;20896;-56
2023/04/17 10:48:28;;;;;;;11.17;7.70;;;;;;;11.70;91.40;99211.28;4988118;28;20225;-56
2023/04/17 10:50:57;;;;;;;10.07;7.00;;;;;;;12.21;86.80;99209.97;4994967;28;20222;-56
2023/04/17 10:53:40;;;;;;;11.07;7.10;;;;;;;12.66;84.27;99216.13;4991433;28;20236;-56
2023/04/17 10:56:07;;;;;;;8.53;6.77;;;;;;;12.95;82.25;99209.84;4993381;28;20230;-56
2023/04/17 10:58:38;;;;;;;9.53;6.67;;;;;;;12.48;85.01;99210.06;4993585;28;20242;-61
2023/04/17 11:01:10;;;;;;;9.93;6.97;;;;;;;12.93;80.37;99206.53;4991582;28;20224;-59
2023/04/17 11:03:37;;;;;;;9.40;6.60;;;;;;;13.18;79.19;99213.75;4991994;28;20239;-59
2023/04/17 11:06:06;;;;;;;8.93;6.60;;;;;;;12.44;84.51;99212.16;4992640;28;20236;-59
2023/04/17 11:08:32;;;;;;;9.43;6.30;;;;;;;12.15;84.02;99213.16;4991496;28;20224;-58
2023/04/17 11:10:59;;;;;;;9.07;6.47;;;;;;;12.37;84.84;99205.88;4983721;28;20684;-59
2023/04/17 11:13:25;;;;;;;7.77;5.73;;;;;;;12.48;82.15;99204.81;4989699;28;20756;-58
2023/04/17 11:15:52;;;;;;;9.60;6.37;;;;;;;12.60;85.41;99195.78;4993193;28;20228;-58
2023/04/17 11:18:20;;;;;;;7.40;5.47;;;;;;;12.92;85.49;99204.06;4981206;28;20301;-58
2023/04/17 11:20:48;;;;;;;8.47;5.73;;;;;;;12.93;82.69;99195.22;4989944;28;20237;-58
2023/04/17 11:23:17;;;;;;;6.50;5.00;;;;;;;12.92;80.92;99204.91;4990369;28;20239;-59
2023/04/17 11:25:44;;;;;;;6.50;4.93;;;;;;;11.92;85.56;99200.44;4993378;28;20220;-57
2023/04/17 11:28:11;;;;;;;6.83;4.80;;;;;;;12.19;84.20;99198.00;4988066;28;20225;-58
2023/04/17 11:30:43;;;;;;;5.40;4.10;;;;;;;11.92;83.71;99197.00;4994187;28;20470;-58